Lime Springs, Iowa
Current Conditions -  °F | °C
As of 8:35 AM on Sunday 23 Nov 2014 (Local Time) from KFKA Reporting Station
Moderate Fog Moderate Fog  
Wind Chill: 42°   Ceiling: 100
Heat Index: 47°   Visibility: 0.5mi
Dew Point: 47°   Wind: 12mph
Humidity: 97%   Direction: 190°S
Pressure: 29.53"   Gusts: NA
Location:  43.45°N, 92.28°W
Report Text: KFKA 231435Z AUTO 19010KT 1/2SM FG OVC001 09/08 A2953 RMK AO2 T00850081
Loading
Personal Weather Stations






























Interactive Weather Map New forecast layout! Learn more

10-Day Weather Forecast

Advertisements
Track Severe Weather on mobile